»·PEaware :: N287JB KLAX-KPSP

N287JB :: KLAX-KPSP

FLIGHT INFORMATION

Flight Status: Arrived
Operator: Privately registered:
United States
More flights under this callsign
Pilot: John L. (16055)
Aircraft: Unknown
(VIPJ)
More flights by this aircraft type
Origin: KLAX Los Angeles Intl
United States
Destination: KPSP Palm Springs Intl
United States
More flights between these airports :: More routes between these airports
Route: KARVR6 KARVR BALDI
File this flight plan on PilotEdge
Remarks: N287JB Plan RNAV RW31L BALDI Entry
Altitude:
(Current/Filed)
21,000ft
Speed:
(Current/Filed)
380kts
Departed: 09-Oct-17 07:17 PM
Arrived: 09-Oct-17 08:01 PM
Distance/Time
Traveled:
95nm/0:44
Distance/Time
To Go:
Arrived

Flight Plot

Page will automatically refresh every two minutes.

Flight plan parsing failed; only flown route is shown


Map Options




Map Legend


Flown Route
Filed Route
Departure Airport
Arrival Airport
Navaid (VOR, NDB)
Fix

Horizontal Profiles

Position Reports

Time Latitude Longitude Heading Altitude Ground
Speed
09-Oct-17 18:57 33.932915 -118.399807 78 129ft 0kts
09-Oct-17 18:58 33.932915 -118.399807 78 129ft 0kts
09-Oct-17 18:59 33.932915 -118.399807 78 129ft 0kts
09-Oct-17 19:00 33.932915 -118.399807 78 129ft 0kts
09-Oct-17 19:01 33.932915 -118.399807 78 129ft 0kts
09-Oct-17 19:02 33.932915 -118.399807 78 129ft 0kts
09-Oct-17 19:03 33.932915 -118.399807 78 129ft 0kts
09-Oct-17 19:04 33.932915 -118.399807 78 129ft 0kts
09-Oct-17 19:05 33.932915 -118.399807 78 129ft 0kts
09-Oct-17 19:06 33.932915 -118.399807 78 129ft 0kts
09-Oct-17 19:07 33.932915 -118.399807 78 129ft 0kts
09-Oct-17 19:08 33.932915 -118.399807 78 129ft 0kts
09-Oct-17 19:09 33.932915 -118.399807 78 129ft 0kts
09-Oct-17 19:10 33.932915 -118.399805 78 129ft 0kts
09-Oct-17 19:11 33.932954 -118.399677 61 129ft 0kts
09-Oct-17 19:12 33.933721 -118.398505 78 129ft 13kts
09-Oct-17 19:13 33.934949 -118.394348 84 129ft 14kts
09-Oct-17 19:14 33.935369 -118.390305 83 129ft 17kts
09-Oct-17 19:15 33.935369 -118.390305 83 129ft 17kts
09-Oct-17 19:16 33.935424 -118.389764 83 129ft 18kts
09-Oct-17 19:17 33.935563 -118.388415 82 129ft 18kts
09-Oct-17 19:18 33.936006 -118.383992 82 129ft 9kts
09-Oct-17 19:19 33.936355 -118.382833 23 129ft 0kts
09-Oct-17 19:20 33.936521 -118.382783 6 129ft 5kts
09-Oct-17 19:21 33.936665 -118.389100 263 129ft 81kts
09-Oct-17 19:22 33.931492 -118.437172 264 2069ft 166kts
09-Oct-17 19:23 33.905992 -118.493871 231 3042ft 219kts
09-Oct-17 19:24 33.868131 -118.550746 230 4991ft 228kts
09-Oct-17 19:25 33.808536 -118.550524 168 5032ft 227kts
09-Oct-17 19:26 33.744306 -118.533435 167 7070ft 258kts
09-Oct-17 19:27 33.685174 -118.502134 130 12055ft 243kts
09-Oct-17 19:28 33.640173 -118.438063 128 15731ft 263kts
09-Oct-17 19:29 33.592499 -118.369083 127 19042ft 280kts
09-Oct-17 19:30 33.547612 -118.292581 107 21022ft 289kts
09-Oct-17 19:31 33.518892 -118.199139 107 20997ft 319kts
09-Oct-17 19:32 33.510532 -118.089549 87 20970ft 347kts
09-Oct-17 19:33 33.510268 -117.971100 87 20958ft 364kts
09-Oct-17 19:34 33.509942 -117.848573 87 20956ft 373kts
09-Oct-17 19:36 33.510002 -117.723809 83 20907ft 377kts
09-Oct-17 19:37 33.520773 -117.599912 79 20967ft 376kts
09-Oct-17 19:38 33.536977 -117.475103 78 20933ft 383kts
09-Oct-17 19:39 33.553397 -117.348898 79 20794ft 390kts
09-Oct-17 19:40 33.568143 -117.233751 79 19684ft 328kts
09-Oct-17 19:41 33.581500 -117.126205 80 18583ft 324kts
09-Oct-17 19:42 33.594589 -117.020662 80 17498ft 318kts
09-Oct-17 19:43 33.607387 -116.916911 80 16421ft 312kts
09-Oct-17 19:44 33.619745 -116.816114 80 15335ft 283kts
09-Oct-17 19:45 33.630860 -116.724892 80 14202ft 276kts
09-Oct-17 19:46 33.641819 -116.634290 81 13089ft 272kts
09-Oct-17 19:47 33.652494 -116.545474 81 12012ft 265kts
09-Oct-17 19:48 33.676064 -116.477657 45 10920ft 219kts
09-Oct-17 19:49 33.717756 -116.428265 44 9405ft 206kts
09-Oct-17 19:50 33.757408 -116.381962 43 7737ft 199kts
09-Oct-17 19:51 33.795944 -116.336966 43 6958ft 172kts
09-Oct-17 19:52 33.822485 -116.295355 97 6951ft 166kts
09-Oct-17 19:53 33.785426 -116.264906 139 5909ft 163kts
09-Oct-17 19:54 33.761332 -116.224882 119 5217ft 149kts
09-Oct-17 19:55 33.722097 -116.200581 177 3911ft 156kts
09-Oct-17 19:56 33.681639 -116.213331 214 4228ft 167kts
09-Oct-17 19:57 33.652162 -116.254067 248 4894ft 164kts
09-Oct-17 19:58 33.647046 -116.308120 283 4282ft 157kts
09-Oct-17 19:59 33.664493 -116.351878 309 2817ft 121kts
09-Oct-17 20:00 33.689792 -116.378119 322 2858ft 123kts
09-Oct-17 20:01 33.716530 -116.403121 323 2836ft 107kts
09-Oct-17 20:02 33.739494 -116.424434 322 2437ft 105kts
09-Oct-17 20:03 33.762451 -116.445691 322 1731ft 104kts
09-Oct-17 20:03 33.781406 -116.463351 322 1284ft 103kts
09-Oct-17 20:05 33.807622 -116.487923 317 822ft 95kts
09-Oct-17 20:06 33.826242 -116.504777 326 481ft 27kts
09-Oct-17 20:07 33.828638 -116.508201 239 481ft 0kts

Navigation Log

Ident Type
Flight plan parsing failed, navigation log unavailable